sensor_id;sensor_type;location;lat;lon;timestamp;temperature;humidity
51811;DHT22;52468;40.116;18.296;2024-03-17T00:01:39;13.00;81.10
51811;DHT22;52468;40.116;18.296;2024-03-17T00:04:08;13.00;81.20
51811;DHT22;52468;40.116;18.296;2024-03-17T00:06:35;13.00;81.20
51811;DHT22;52468;40.116;18.296;2024-03-17T00:09:02;13.00;81.40
51811;DHT22;52468;40.116;18.296;2024-03-17T00:11:33;13.00;81.20
51811;DHT22;52468;40.116;18.296;2024-03-17T00:14:02;13.00;81.20
51811;DHT22;52468;40.116;18.296;2024-03-17T00:16:29;13.00;81.20
51811;DHT22;52468;40.116;18.296;2024-03-17T00:18:56;13.00;81.20
51811;DHT22;52468;40.116;18.296;2024-03-17T00:21:22;13.00;81.30
51811;DHT22;52468;40.116;18.296;2024-03-17T00:23:50;13.00;81.40
51811;DHT22;52468;40.116;18.296;2024-03-17T00:26:17;13.00;81.50
51811;DHT22;52468;40.116;18.296;2024-03-17T00:28:46;13.00;81.60
51811;DHT22;52468;40.116;18.296;2024-03-17T00:31:14;12.90;81.60
51811;DHT22;52468;40.116;18.296;2024-03-17T00:33:41;13.00;81.50
51811;DHT22;52468;40.116;18.296;2024-03-17T00:36:08;13.00;81.60
51811;DHT22;52468;40.116;18.296;2024-03-17T00:38:35;12.90;81.70
51811;DHT22;52468;40.116;18.296;2024-03-17T00:41:05;12.90;81.70
51811;DHT22;52468;40.116;18.296;2024-03-17T00:43:32;12.90;81.90
51811;DHT22;52468;40.116;18.296;2024-03-17T00:45:59;12.90;81.80
51811;DHT22;52468;40.116;18.296;2024-03-17T00:48:26;13.00;81.70
51811;DHT22;52468;40.116;18.296;2024-03-17T00:50:56;13.00;81.60
51811;DHT22;52468;40.116;18.296;2024-03-17T00:53:24;13.00;81.70
51811;DHT22;52468;40.116;18.296;2024-03-17T00:55:55;13.00;81.70
51811;DHT22;52468;40.116;18.296;2024-03-17T00:58:24;13.00;81.90
51811;DHT22;52468;40.116;18.296;2024-03-17T01:00:51;13.00;81.60
51811;DHT22;52468;40.116;18.296;2024-03-17T01:03:18;13.00;81.60
51811;DHT22;52468;40.116;18.296;2024-03-17T01:05:45;13.00;82.00
51811;DHT22;52468;40.116;18.296;2024-03-17T01:08:14;13.10;81.80
51811;DHT22;52468;40.116;18.296;2024-03-17T01:10:41;13.00;81.80
51811;DHT22;52468;40.116;18.296;2024-03-17T01:13:09;13.10;81.70
51811;DHT22;52468;40.116;18.296;2024-03-17T01:15:37;13.10;81.80
51811;DHT22;52468;40.116;18.296;2024-03-17T01:18:05;13.10;81.80
51811;DHT22;52468;40.116;18.296;2024-03-17T01:20:32;13.10;81.90
51811;DHT22;52468;40.116;18.296;2024-03-17T01:23:01;13.20;81.80
51811;DHT22;52468;40.116;18.296;2024-03-17T01:25:28;13.20;81.80
51811;DHT22;52468;40.116;18.296;2024-03-17T01:27:56;13.20;81.80
51811;DHT22;52468;40.116;18.296;2024-03-17T01:30:23;13.20;81.70
51811;DHT22;52468;40.116;18.296;2024-03-17T01:32:51;13.20;81.70
51811;DHT22;52468;40.116;18.296;2024-03-17T01:35:18;13.10;81.60
51811;DHT22;52468;40.116;18.296;2024-03-17T01:37:45;13.20;81.70
51811;DHT22;52468;40.116;18.296;2024-03-17T01:40:12;13.10;81.50
51811;DHT22;52468;40.116;18.296;2024-03-17T01:42:39;13.20;81.70
51811;DHT22;52468;40.116;18.296;2024-03-17T01:45:29;13.30;81.40
51811;DHT22;52468;40.116;18.296;2024-03-17T01:47:57;13.30;81.30
51811;DHT22;52468;40.116;18.296;2024-03-17T01:50:28;13.20;81.40
51811;DHT22;52468;40.116;18.296;2024-03-17T01:52:58;13.30;81.40
51811;DHT22;52468;40.116;18.296;2024-03-17T01:55:27;13.30;81.60
51811;DHT22;52468;40.116;18.296;2024-03-17T01:57:54;13.40;81.40
51811;DHT22;52468;40.116;18.296;2024-03-17T02:00:21;13.40;81.10
51811;DHT22;52468;40.116;18.296;2024-03-17T02:02:49;13.50;81.20
51811;DHT22;52468;40.116;18.296;2024-03-17T02:05:17;13.50;81.10
51811;DHT22;52468;40.116;18.296;2024-03-17T02:07:44;13.40;80.80
51811;DHT22;52468;40.116;18.296;2024-03-17T02:10:11;13.40;80.90
51811;DHT22;52468;40.116;18.296;2024-03-17T02:12:38;13.40;80.90
51811;DHT22;52468;40.116;18.296;2024-03-17T02:15:06;13.50;80.80
51811;DHT22;52468;40.116;18.296;2024-03-17T02:17:33;13.50;80.70
51811;DHT22;52468;40.116;18.296;2024-03-17T02:20:01;13.50;80.70
51811;DHT22;52468;40.116;18.296;2024-03-17T02:22:27;13.40;80.80
51811;DHT22;52468;40.116;18.296;2024-03-17T02:24:54;13.40;81.00
51811;DHT22;52468;40.116;18.296;2024-03-17T02:27:21;13.30;81.10
51811;DHT22;52468;40.116;18.296;2024-03-17T02:29:48;13.40;81.00
51811;DHT22;52468;40.116;18.296;2024-03-17T02:32:15;13.40;80.90
51811;DHT22;52468;40.116;18.296;2024-03-17T02:34:42;13.40;80.70
51811;DHT22;52468;40.116;18.296;2024-03-17T02:37:10;13.30;80.60
51811;DHT22;52468;40.116;18.296;2024-03-17T02:39:37;13.40;81.00
51811;DHT22;52468;40.116;18.296;2024-03-17T02:42:09;13.50;80.80
51811;DHT22;52468;40.116;18.296;2024-03-17T02:44:38;13.40;80.70
51811;DHT22;52468;40.116;18.296;2024-03-17T02:47:06;13.50;80.70
51811;DHT22;52468;40.116;18.296;2024-03-17T02:49:35;13.50;80.60
51811;DHT22;52468;40.116;18.296;2024-03-17T02:52:16;13.50;80.70
51811;DHT22;52468;40.116;18.296;2024-03-17T02:54:43;13.50;80.60
51811;DHT22;52468;40.116;18.296;2024-03-17T02:57:10;13.40;80.90
51811;DHT22;52468;40.116;18.296;2024-03-17T02:59:36;13.30;80.60
51811;DHT22;52468;40.116;18.296;2024-03-17T03:02:03;13.40;80.80
51811;DHT22;52468;40.116;18.296;2024-03-17T03:04:31;13.40;80.80
51811;DHT22;52468;40.116;18.296;2024-03-17T03:06:58;13.30;80.80
51811;DHT22;52468;40.116;18.296;2024-03-17T03:09:24;13.40;80.60
51811;DHT22;52468;40.116;18.296;2024-03-17T03:12:01;13.40;80.80
51811;DHT22;52468;40.116;18.296;2024-03-17T03:14:31;13.40;80.70
51811;DHT22;52468;40.116;18.296;2024-03-17T03:16:59;13.40;80.60
51811;DHT22;52468;40.116;18.296;2024-03-17T03:19:27;13.30;80.40
51811;DHT22;52468;40.116;18.296;2024-03-17T03:21:54;13.30;80.80
51811;DHT22;52468;40.116;18.296;2024-03-17T03:24:21;13.30;81.00
51811;DHT22;52468;40.116;18.296;2024-03-17T03:26:48;13.30;80.70
51811;DHT22;52468;40.116;18.296;2024-03-17T03:29:15;13.30;80.80
51811;DHT22;52468;40.116;18.296;2024-03-17T03:31:41;13.30;80.80
51811;DHT22;52468;40.116;18.296;2024-03-17T03:34:08;13.20;80.90
51811;DHT22;52468;40.116;18.296;2024-03-17T03:36:35;13.20;80.90
51811;DHT22;52468;40.116;18.296;2024-03-17T03:39:03;13.20;80.90
51811;DHT22;52468;40.116;18.296;2024-03-17T03:41:32;13.20;81.00
51811;DHT22;52468;40.116;18.296;2024-03-17T03:43:59;13.20;81.10
51811;DHT22;52468;40.116;18.296;2024-03-17T03:46:26;13.10;81.10
51811;DHT22;52468;40.116;18.296;2024-03-17T03:48:53;13.10;81.20
51811;DHT22;52468;40.116;18.296;2024-03-17T03:51:20;13.00;81.30
51811;DHT22;52468;40.116;18.296;2024-03-17T03:53:47;13.00;81.40
51811;DHT22;52468;40.116;18.296;2024-03-17T03:56:13;12.90;81.60
51811;DHT22;52468;40.116;18.296;2024-03-17T03:58:42;12.90;81.60
51811;DHT22;52468;40.116;18.296;2024-03-17T04:01:10;12.80;81.70
51811;DHT22;52468;40.116;18.296;2024-03-17T04:03:48;12.80;81.90
51811;DHT22;52468;40.116;18.296;2024-03-17T04:06:16;12.80;82.00
51811;DHT22;52468;40.116;18.296;2024-03-17T04:08:43;12.70;82.00
51811;DHT22;52468;40.116;18.296;2024-03-17T04:11:10;12.70;82.10
51811;DHT22;52468;40.116;18.296;2024-03-17T04:13:38;12.70;82.20
51811;DHT22;52468;40.116;18.296;2024-03-17T04:16:06;12.60;82.20
51811;DHT22;52468;40.116;18.296;2024-03-17T04:18:33;12.60;82.30
51811;DHT22;52468;40.116;18.296;2024-03-17T04:21:02;12.50;82.40
51811;DHT22;52468;40.116;18.296;2024-03-17T04:23:35;12.50;82.30
51811;DHT22;52468;40.116;18.296;2024-03-17T04:26:04;12.50;82.50
51811;DHT22;52468;40.116;18.296;2024-03-17T04:28:30;12.50;82.30
51811;DHT22;52468;40.116;18.296;2024-03-17T04:31:07;12.40;82.40
51811;DHT22;52468;40.116;18.296;2024-03-17T04:33:35;12.40;82.20
51811;DHT22;52468;40.116;18.296;2024-03-17T04:36:02;12.40;82.20
51811;DHT22;52468;40.116;18.296;2024-03-17T04:38:29;12.40;82.30
51811;DHT22;52468;40.116;18.296;2024-03-17T04:40:56;12.30;82.60
51811;DHT22;52468;40.116;18.296;2024-03-17T04:43:33;12.40;82.60
51811;DHT22;52468;40.116;18.296;2024-03-17T04:46:01;12.40;82.70
51811;DHT22;52468;40.116;18.296;2024-03-17T04:48:31;12.40;82.80
51811;DHT22;52468;40.116;18.296;2024-03-17T04:50:59;12.50;82.70
51811;DHT22;52468;40.116;18.296;2024-03-17T04:53:27;12.50;83.10
51811;DHT22;52468;40.116;18.296;2024-03-17T04:56:00;12.50;83.10
51811;DHT22;52468;40.116;18.296;2024-03-17T04:58:27;12.60;82.90
51811;DHT22;52468;40.116;18.296;2024-03-17T05:00:54;12.60;83.00
51811;DHT22;52468;40.116;18.296;2024-03-17T05:03:21;12.60;82.80
51811;DHT22;52468;40.116;18.296;2024-03-17T05:05:47;12.60;82.70
51811;DHT22;52468;40.116;18.296;2024-03-17T05:08:14;12.60;82.60
51811;DHT22;52468;40.116;18.296;2024-03-17T05:10:41;12.60;82.60
51811;DHT22;52468;40.116;18.296;2024-03-17T05:13:08;12.60;82.50
51811;DHT22;52468;40.116;18.296;2024-03-17T05:15:36;12.60;82.60
51811;DHT22;52468;40.116;18.296;2024-03-17T05:18:04;12.60;82.80
51811;DHT22;52468;40.116;18.296;2024-03-17T05:20:31;12.50;82.70
51811;DHT22;52468;40.116;18.296;2024-03-17T05:22:57;12.50;82.80
51811;DHT22;52468;40.116;18.296;2024-03-17T05:25:24;12.50;82.90
51811;DHT22;52468;40.116;18.296;2024-03-17T05:27:51;12.50;83.20
51811;DHT22;52468;40.116;18.296;2024-03-17T05:30:18;12.50;83.10
51811;DHT22;52468;40.116;18.296;2024-03-17T05:32:44;12.60;83.30
51811;DHT22;52468;40.116;18.296;2024-03-17T05:35:11;12.70;83.10
51811;DHT22;52468;40.116;18.296;2024-03-17T05:37:39;12.80;83.40
51811;DHT22;52468;40.116;18.296;2024-03-17T05:40:10;13.00;83.20
51811;DHT22;52468;40.116;18.296;2024-03-17T05:42:41;13.10;83.00
51811;DHT22;52468;40.116;18.296;2024-03-17T05:45:09;13.30;82.70
51811;DHT22;52468;40.116;18.296;2024-03-17T05:47:38;13.50;82.60
51811;DHT22;52468;40.116;18.296;2024-03-17T05:50:05;13.60;82.70
51811;DHT22;52468;40.116;18.296;2024-03-17T05:52:32;13.70;82.60
51811;DHT22;52468;40.116;18.296;2024-03-17T05:54:59;13.90;82.60
51811;DHT22;52468;40.116;18.296;2024-03-17T05:57:25;14.00;82.50
51811;DHT22;52468;40.116;18.296;2024-03-17T05:59:52;14.10;82.20
51811;DHT22;52468;40.116;18.296;2024-03-17T06:02:19;14.20;82.40
51811;DHT22;52468;40.116;18.296;2024-03-17T06:04:46;14.30;82.50
51811;DHT22;52468;40.116;18.296;2024-03-17T06:07:13;14.40;82.30
51811;DHT22;52468;40.116;18.296;2024-03-17T06:09:39;14.50;82.10
51811;DHT22;52468;40.116;18.296;2024-03-17T06:12:06;14.60;82.50
51811;DHT22;52468;40.116;18.296;2024-03-17T06:14:33;14.80;82.70
51811;DHT22;52468;40.116;18.296;2024-03-17T06:17:03;15.00;82.10
51811;DHT22;52468;40.116;18.296;2024-03-17T06:19:30;15.00;81.70
51811;DHT22;52468;40.116;18.296;2024-03-17T06:21:57;15.10;81.50
51811;DHT22;52468;40.116;18.296;2024-03-17T06:24:24;15.10;81.20
51811;DHT22;52468;40.116;18.296;2024-03-17T06:26:51;15.10;81.30
51811;DHT22;52468;40.116;18.296;2024-03-17T06:29:17;15.10;81.50
51811;DHT22;52468;40.116;18.296;2024-03-17T06:31:46;15.30;81.90
51811;DHT22;52468;40.116;18.296;2024-03-17T06:34:13;15.60;82.80
51811;DHT22;52468;40.116;18.296;2024-03-17T06:36:42;15.80;82.20
51811;DHT22;52468;40.116;18.296;2024-03-17T06:39:09;16.00;81.70
51811;DHT22;52468;40.116;18.296;2024-03-17T06:41:36;16.20;81.20
51811;DHT22;52468;40.116;18.296;2024-03-17T06:44:04;16.40;81.20
51811;DHT22;52468;40.116;18.296;2024-03-17T06:46:33;16.50;81.00
51811;DHT22;52468;40.116;18.296;2024-03-17T06:48:59;16.50;79.90
51811;DHT22;52468;40.116;18.296;2024-03-17T06:51:26;16.60;79.90
51811;DHT22;52468;40.116;18.296;2024-03-17T06:53:53;16.60;78.50
51811;DHT22;52468;40.116;18.296;2024-03-17T06:56:20;16.80;79.40
51811;DHT22;52468;40.116;18.296;2024-03-17T06:58:47;17.00;78.10
51811;DHT22;52468;40.116;18.296;2024-03-17T07:01:13;17.00;77.40
51811;DHT22;52468;40.116;18.296;2024-03-17T07:03:40;17.10;77.00
51811;DHT22;52468;40.116;18.296;2024-03-17T07:06:07;17.20;77.70
51811;DHT22;52468;40.116;18.296;2024-03-17T07:08:34;17.30;76.20
51811;DHT22;52468;40.116;18.296;2024-03-17T07:11:05;17.50;77.30
51811;DHT22;52468;40.116;18.296;2024-03-17T07:13:35;17.70;75.70
51811;DHT22;52468;40.116;18.296;2024-03-17T07:16:04;18.00;74.80
51811;DHT22;52468;40.116;18.296;2024-03-17T07:18:34;18.10;75.60
51811;DHT22;52468;40.116;18.296;2024-03-17T07:21:03;18.20;73.30
51811;DHT22;52468;40.116;18.296;2024-03-17T07:23:36;18.10;72.50
51811;DHT22;52468;40.116;18.296;2024-03-17T07:26:04;18.00;72.10
51811;DHT22;52468;40.116;18.296;2024-03-17T07:28:36;17.90;72.00
51811;DHT22;52468;40.116;18.296;2024-03-17T07:31:08;17.90;72.30
51811;DHT22;52468;40.116;18.296;2024-03-17T07:33:36;17.80;72.30
51811;DHT22;52468;40.116;18.296;2024-03-17T07:36:03;17.50;73.30
51811;DHT22;52468;40.116;18.296;2024-03-17T07:38:31;17.40;73.40
51811;DHT22;52468;40.116;18.296;2024-03-17T07:41:03;17.30;73.20
51811;DHT22;52468;40.116;18.296;2024-03-17T07:43:32;17.10;72.60
51811;DHT22;52468;40.116;18.296;2024-03-17T07:46:05;16.80;72.10
51811;DHT22;52468;40.116;18.296;2024-03-17T07:48:36;16.50;72.60
51811;DHT22;52468;40.116;18.296;2024-03-17T07:51:16;16.20;73.70
51811;DHT22;52468;40.116;18.296;2024-03-17T07:53:47;16.20;74.10
51811;DHT22;52468;40.116;18.296;2024-03-17T07:56:19;16.20;74.30
51811;DHT22;52468;40.116;18.296;2024-03-17T07:58:46;16.30;74.30
51811;DHT22;52468;40.116;18.296;2024-03-17T08:01:16;16.20;74.30
51811;DHT22;52468;40.116;18.296;2024-03-17T08:03:45;16.10;75.30
51811;DHT22;52468;40.116;18.296;2024-03-17T08:06:12;16.00;75.60
51811;DHT22;52468;40.116;18.296;2024-03-17T08:08:40;15.60;78.20
51811;DHT22;52468;40.116;18.296;2024-03-17T08:11:07;14.40;81.40
51811;DHT22;52468;40.116;18.296;2024-03-17T08:13:34;13.70;83.80
51811;DHT22;52468;40.116;18.296;2024-03-17T08:16:03;13.40;84.80
51811;DHT22;52468;40.116;18.296;2024-03-17T08:18:32;13.40;85.60
51811;DHT22;52468;40.116;18.296;2024-03-17T08:21:00;13.50;86.00
51811;DHT22;52468;40.116;18.296;2024-03-17T08:23:27;13.80;85.70
51811;DHT22;52468;40.116;18.296;2024-03-17T08:25:55;14.00;85.90
51811;DHT22;52468;40.116;18.296;2024-03-17T08:28:24;14.30;86.20
51811;DHT22;52468;40.116;18.296;2024-03-17T08:30:52;14.60;86.80
51811;DHT22;52468;40.116;18.296;2024-03-17T08:33:19;14.80;87.30
51811;DHT22;52468;40.116;18.296;2024-03-17T08:35:57;15.00;87.10
51811;DHT22;52468;40.116;18.296;2024-03-17T08:38:25;15.20;87.80
51811;DHT22;52468;40.116;18.296;2024-03-17T08:40:52;15.40;87.90
51811;DHT22;52468;40.116;18.296;2024-03-17T08:43:20;15.40;87.10
51811;DHT22;52468;40.116;18.296;2024-03-17T08:46:05;15.50;87.10
51811;DHT22;52468;40.116;18.296;2024-03-17T08:48:34;15.50;86.80
51811;DHT22;52468;40.116;18.296;2024-03-17T08:51:02;15.50;86.50
51811;DHT22;52468;40.116;18.296;2024-03-17T08:53:29;15.50;86.30
51811;DHT22;52468;40.116;18.296;2024-03-17T08:55:57;15.50;85.90
51811;DHT22;52468;40.116;18.296;2024-03-17T08:58:26;15.50;85.90
51811;DHT22;52468;40.116;18.296;2024-03-17T09:00:53;15.60;85.90
51811;DHT22;52468;40.116;18.296;2024-03-17T09:03:20;15.80;85.60
51811;DHT22;52468;40.116;18.296;2024-03-17T09:05:48;16.00;86.80
51811;DHT22;52468;40.116;18.296;2024-03-17T09:08:18;16.50;86.50
51811;DHT22;52468;40.116;18.296;2024-03-17T09:10:48;16.70;84.90
51811;DHT22;52468;40.116;18.296;2024-03-17T09:13:23;16.80;84.60
51811;DHT22;52468;40.116;18.296;2024-03-17T09:16:01;16.80;83.40
51811;DHT22;52468;40.116;18.296;2024-03-17T09:18:32;16.70;83.60
51811;DHT22;52468;40.116;18.296;2024-03-17T09:21:03;16.60;81.90
51811;DHT22;52468;40.116;18.296;2024-03-17T09:23:31;16.70;83.50
51811;DHT22;52468;40.116;18.296;2024-03-17T09:26:04;17.00;82.20
51811;DHT22;52468;40.116;18.296;2024-03-17T09:28:32;17.10;77.90
51811;DHT22;52468;40.116;18.296;2024-03-17T09:30:59;17.10;76.90
51811;DHT22;52468;40.116;18.296;2024-03-17T09:33:28;17.10;77.20
51811;DHT22;52468;40.116;18.296;2024-03-17T09:36:06;17.30;78.60
51811;DHT22;52468;40.116;18.296;2024-03-17T09:38:34;17.50;77.50
51811;DHT22;52468;40.116;18.296;2024-03-17T09:41:02;17.70;76.20
51811;DHT22;52468;40.116;18.296;2024-03-17T09:43:35;18.20;76.90
51811;DHT22;52468;40.116;18.296;2024-03-17T09:46:03;18.50;72.90
51811;DHT22;52468;40.116;18.296;2024-03-17T09:48:30;18.50;71.20
51811;DHT22;52468;40.116;18.296;2024-03-17T09:50:58;18.40;70.00
51811;DHT22;52468;40.116;18.296;2024-03-17T09:53:26;18.60;69.70
51811;DHT22;52468;40.116;18.296;2024-03-17T09:55:58;19.00;70.10
51811;DHT22;52468;40.116;18.296;2024-03-17T09:58:25;19.20;67.60
51811;DHT22;52468;40.116;18.296;2024-03-17T10:00:52;19.40;66.30
51811;DHT22;52468;40.116;18.296;2024-03-17T10:03:40;19.60;66.50
51811;DHT22;52468;40.116;18.296;2024-03-17T10:06:09;19.50;64.00
51811;DHT22;52468;40.116;18.296;2024-03-17T10:08:51;19.10;65.30
51811;DHT22;52468;40.116;18.296;2024-03-17T10:11:24;19.30;66.20
51811;DHT22;52468;40.116;18.296;2024-03-17T10:16:28;19.80;62.10
51811;DHT22;52468;40.116;18.296;2024-03-17T10:19:24;19.50;63.20
51811;DHT22;52468;40.116;18.296;2024-03-17T10:21:59;19.40;64.40
51811;DHT22;52468;40.116;18.296;2024-03-17T10:24:29;19.70;63.20
51811;DHT22;52468;40.116;18.296;2024-03-17T10:26:59;19.70;63.00
51811;DHT22;52468;40.116;18.296;2024-03-17T10:29:33;19.90;62.30
51811;DHT22;52468;40.116;18.296;2024-03-17T10:32:02;20.10;60.80
51811;DHT22;52468;40.116;18.296;2024-03-17T10:34:31;20.30;59.30
51811;DHT22;52468;40.116;18.296;2024-03-17T10:37:14;20.40;59.10
51811;DHT22;52468;40.116;18.296;2024-03-17T10:39:42;20.30;59.10
51811;DHT22;52468;40.116;18.296;2024-03-17T10:42:11;20.00;59.10
51811;DHT22;52468;40.116;18.296;2024-03-17T10:44:39;19.80;60.80
51811;DHT22;52468;40.116;18.296;2024-03-17T10:47:09;19.70;60.60
51811;DHT22;52468;40.116;18.296;2024-03-17T10:49:42;19.70;60.30
51811;DHT22;52468;40.116;18.296;2024-03-17T10:52:16;19.90;60.00
51811;DHT22;52468;40.116;18.296;2024-03-17T10:54:51;20.00;59.60
51811;DHT22;52468;40.116;18.296;2024-03-17T10:57:53;20.00;60.10
51811;DHT22;52468;40.116;18.296;2024-03-17T11:00:20;20.00;59.70
51811;DHT22;52468;40.116;18.296;2024-03-17T11:02:52;20.20;57.00
51811;DHT22;52468;40.116;18.296;2024-03-17T11:05:27;20.40;57.40
51811;DHT22;52468;40.116;18.296;2024-03-17T11:07:57;20.70;57.20
51811;DHT22;52468;40.116;18.296;2024-03-17T11:10:35;20.50;56.60
51811;DHT22;52468;40.116;18.296;2024-03-17T11:13:05;20.40;57.80
51811;DHT22;52468;40.116;18.296;2024-03-17T11:15:48;20.40;56.70
51811;DHT22;52468;40.116;18.296;2024-03-17T11:21:04;21.10;55.50
51811;DHT22;52468;40.116;18.296;2024-03-17T11:23:41;20.80;55.40
51811;DHT22;52468;40.116;18.296;2024-03-17T11:26:09;20.60;55.50
51811;DHT22;52468;40.116;18.296;2024-03-17T11:31:42;20.50;55.90
51811;DHT22;52468;40.116;18.296;2024-03-17T11:34:35;20.60;55.80
51811;DHT22;52468;40.116;18.296;2024-03-17T11:37:03;20.50;54.90
51811;DHT22;52468;40.116;18.296;2024-03-17T11:39:50;20.30;55.50
51811;DHT22;52468;40.116;18.296;2024-03-17T11:42:19;20.00;56.30
51811;DHT22;52468;40.116;18.296;2024-03-17T11:47:38;20.00;57.80
51811;DHT22;52468;40.116;18.296;2024-03-17T11:50:10;20.40;56.80
51811;DHT22;52468;40.116;18.296;2024-03-17T11:52:38;20.30;56.80
51811;DHT22;52468;40.116;18.296;2024-03-17T11:55:15;20.10;56.40
51811;DHT22;52468;40.116;18.296;2024-03-17T11:57:43;20.20;57.00
51811;DHT22;52468;40.116;18.296;2024-03-17T12:00:22;20.50;56.50
51811;DHT22;52468;40.116;18.296;2024-03-17T12:02:50;20.10;56.80
51811;DHT22;52468;40.116;18.296;2024-03-17T12:05:17;19.90;57.60
51811;DHT22;52468;40.116;18.296;2024-03-17T12:07:45;20.20;56.90
51811;DHT22;52468;40.116;18.296;2024-03-17T12:10:12;20.40;56.20
51811;DHT22;52468;40.116;18.296;2024-03-17T12:12:40;20.60;55.40
51811;DHT22;52468;40.116;18.296;2024-03-17T12:15:18;20.60;54.60
51811;DHT22;52468;40.116;18.296;2024-03-17T12:17:46;20.60;55.10
51811;DHT22;52468;40.116;18.296;2024-03-17T12:20:17;20.50;55.30
51811;DHT22;52468;40.116;18.296;2024-03-17T12:22:47;20.40;55.40
51811;DHT22;52468;40.116;18.296;2024-03-17T12:25:17;20.30;56.10
51811;DHT22;52468;40.116;18.296;2024-03-17T12:27:46;20.30;56.40
51811;DHT22;52468;40.116;18.296;2024-03-17T12:30:13;20.20;55.80
51811;DHT22;52468;40.116;18.296;2024-03-17T12:32:40;20.20;56.10
51811;DHT22;52468;40.116;18.296;2024-03-17T12:35:15;20.00;56.10
51811;DHT22;52468;40.116;18.296;2024-03-17T12:37:44;20.00;56.50
51811;DHT22;52468;40.116;18.296;2024-03-17T12:40:23;20.30;55.60
51811;DHT22;52468;40.116;18.296;2024-03-17T12:42:51;20.30;55.20
51811;DHT22;52468;40.116;18.296;2024-03-17T12:45:22;20.60;55.00
51811;DHT22;52468;40.116;18.296;2024-03-17T12:47:50;20.90;54.10
51811;DHT22;52468;40.116;18.296;2024-03-17T12:50:17;21.00;52.60
51811;DHT22;52468;40.116;18.296;2024-03-17T12:52:55;21.10;52.40
51811;DHT22;52468;40.116;18.296;2024-03-17T12:55:22;21.00;52.90
51811;DHT22;52468;40.116;18.296;2024-03-17T12:58:09;21.00;53.00
51811;DHT22;52468;40.116;18.296;2024-03-17T13:01:05;21.20;53.00
51811;DHT22;52468;40.116;18.296;2024-03-17T13:03:34;21.00;52.00
51811;DHT22;52468;40.116;18.296;2024-03-17T13:06:01;20.60;53.10
51811;DHT22;52468;40.116;18.296;2024-03-17T13:08:38;20.50;53.80
51811;DHT22;52468;40.116;18.296;2024-03-17T13:11:08;20.30;52.90
51811;DHT22;52468;40.116;18.296;2024-03-17T13:13:36;20.50;52.70
51811;DHT22;52468;40.116;18.296;2024-03-17T13:16:03;20.50;53.20
51811;DHT22;52468;40.116;18.296;2024-03-17T13:18:29;20.50;52.30
51811;DHT22;52468;40.116;18.296;2024-03-17T13:20:56;20.40;52.70
51811;DHT22;52468;40.116;18.296;2024-03-17T13:23:24;20.20;53.20
51811;DHT22;52468;40.116;18.296;2024-03-17T13:25:51;20.20;52.50
51811;DHT22;52468;40.116;18.296;2024-03-17T13:28:18;20.30;50.80
51811;DHT22;52468;40.116;18.296;2024-03-17T13:30:45;20.40;51.50
51811;DHT22;52468;40.116;18.296;2024-03-17T13:33:13;20.50;50.70
51811;DHT22;52468;40.116;18.296;2024-03-17T13:35:40;20.50;50.90
51811;DHT22;52468;40.116;18.296;2024-03-17T13:38:09;20.30;51.80
51811;DHT22;52468;40.116;18.296;2024-03-17T13:40:38;20.50;52.00
51811;DHT22;52468;40.116;18.296;2024-03-17T13:43:05;20.20;52.70
51811;DHT22;52468;40.116;18.296;2024-03-17T13:45:42;20.30;53.70
51811;DHT22;52468;40.116;18.296;2024-03-17T13:48:10;20.30;53.50
51811;DHT22;52468;40.116;18.296;2024-03-17T13:50:38;20.40;53.70
51811;DHT22;52468;40.116;18.296;2024-03-17T13:53:13;20.40;53.00
51811;DHT22;52468;40.116;18.296;2024-03-17T13:55:40;20.40;53.30
51811;DHT22;52468;40.116;18.296;2024-03-17T13:58:07;20.40;53.10
51811;DHT22;52468;40.116;18.296;2024-03-17T14:00:34;20.50;53.40
51811;DHT22;52468;40.116;18.296;2024-03-17T14:03:04;20.50;54.00
51811;DHT22;52468;40.116;18.296;2024-03-17T14:05:31;20.50;54.40
51811;DHT22;52468;40.116;18.296;2024-03-17T14:08:01;20.40;54.60
51811;DHT22;52468;40.116;18.296;2024-03-17T14:10:28;20.20;55.30
51811;DHT22;52468;40.116;18.296;2024-03-17T14:12:56;20.20;55.10
51811;DHT22;52468;40.116;18.296;2024-03-17T14:15:24;20.20;55.70
51811;DHT22;52468;40.116;18.296;2024-03-17T14:17:52;20.30;55.80
51811;DHT22;52468;40.116;18.296;2024-03-17T14:20:19;20.30;55.70
51811;DHT22;52468;40.116;18.296;2024-03-17T14:22:48;20.30;56.00
51811;DHT22;52468;40.116;18.296;2024-03-17T14:25:20;20.50;54.90
51811;DHT22;52468;40.116;18.296;2024-03-17T14:27:53;21.10;53.80
51811;DHT22;52468;40.116;18.296;2024-03-17T14:30:21;21.50;52.60
51811;DHT22;52468;40.116;18.296;2024-03-17T14:32:49;22.30;50.70
51811;DHT22;52468;40.116;18.296;2024-03-17T14:35:17;22.70;48.00
51811;DHT22;52468;40.116;18.296;2024-03-17T14:37:44;22.00;48.70
51811;DHT22;52468;40.116;18.296;2024-03-17T14:40:16;21.50;50.20
51811;DHT22;52468;40.116;18.296;2024-03-17T14:42:51;21.90;51.00
51811;DHT22;52468;40.116;18.296;2024-03-17T14:47:45;25.30;43.90
51811;DHT22;52468;40.116;18.296;2024-03-17T14:50:13;26.10;40.70
51811;DHT22;52468;40.116;18.296;2024-03-17T14:52:40;24.70;43.10
51811;DHT22;52468;40.116;18.296;2024-03-17T14:55:09;24.20;45.10
51811;DHT22;52468;40.116;18.296;2024-03-17T14:57:40;25.00;44.20
51811;DHT22;52468;40.116;18.296;2024-03-17T15:00:12;25.60;42.80
51811;DHT22;52468;40.116;18.296;2024-03-17T15:02:52;25.80;42.40
51811;DHT22;52468;40.116;18.296;2024-03-17T15:05:19;26.00;41.30
51811;DHT22;52468;40.116;18.296;2024-03-17T15:07:46;26.10;40.50
51811;DHT22;52468;40.116;18.296;2024-03-17T15:10:13;26.40;40.40
51811;DHT22;52468;40.116;18.296;2024-03-17T15:12:40;26.50;40.20
51811;DHT22;52468;40.116;18.296;2024-03-17T15:22:48;26.20;41.10
51811;DHT22;52468;40.116;18.296;2024-03-17T15:25:18;26.00;41.40
51811;DHT22;52468;40.116;18.296;2024-03-17T15:27:46;25.80;42.40
51811;DHT22;52468;40.116;18.296;2024-03-17T15:30:17;25.60;43.00
51811;DHT22;52468;40.116;18.296;2024-03-17T15:32:52;25.30;43.20
51811;DHT22;52468;40.116;18.296;2024-03-17T15:35:22;25.00;44.10
51811;DHT22;52468;40.116;18.296;2024-03-17T15:37:48;23.80;46.30
51811;DHT22;52468;40.116;18.296;2024-03-17T15:40:15;23.30;48.00
51811;DHT22;52468;40.116;18.296;2024-03-17T15:42:46;23.00;48.70
51811;DHT22;52468;40.116;18.296;2024-03-17T15:45:13;22.20;50.50
51811;DHT22;52468;40.116;18.296;2024-03-17T15:47:41;21.10;52.60
51811;DHT22;52468;40.116;18.296;2024-03-17T15:50:09;20.40;54.20